createdAt,value
2019-01-03T00:02:14.594Z,0.30
2019-01-03T00:05:13.364Z,0.30
2019-01-03T00:08:13.152Z,0.30
2019-01-03T00:11:13.330Z,0.30
2019-01-03T00:14:12.816Z,0.30
2019-01-03T00:17:15.561Z,0.30
2019-01-03T00:20:15.417Z,0.30
2019-01-03T00:23:18.543Z,0.30
2019-01-03T00:26:18.176Z,0.40
2019-01-03T00:29:17.686Z,0.30
2019-01-03T00:32:17.934Z,0.30
2019-01-03T00:37:44.570Z,0.40
2019-01-03T00:40:44.655Z,0.40
2019-01-03T00:43:41.419Z,0.40
2019-01-03T00:46:41.301Z,0.40
2019-01-03T00:49:40.915Z,0.50
2019-01-03T00:52:34.259Z,0.50
2019-01-03T00:55:33.675Z,0.60
2019-01-03T00:58:33.332Z,0.60
2019-01-03T01:01:36.412Z,0.60
2019-01-03T01:04:39.582Z,0.60
2019-01-03T01:07:40.828Z,0.60
2019-01-03T01:10:46.911Z,0.60
2019-01-03T01:13:46.321Z,0.60
2019-01-03T01:16:46.058Z,0.50
2019-01-03T01:19:46.483Z,0.50
2019-01-03T01:22:46.508Z,0.50
2019-01-03T01:25:38.627Z,0.50
2019-01-03T01:28:38.772Z,0.40
2019-01-03T01:31:38.485Z,0.40
2019-01-03T01:34:37.897Z,0.30
2019-01-03T01:37:43.351Z,0.20
2019-01-03T01:40:33.446Z,0.20
2019-01-03T01:43:33.052Z,0.20
2019-01-03T01:46:32.609Z,0.30
2019-01-03T01:49:26.473Z,0.40
2019-01-03T01:52:32.495Z,0.40
2019-01-03T01:55:37.989Z,0.40
2019-01-03T01:58:37.829Z,0.30
2019-01-03T02:01:38.233Z,0.20
2019-01-03T02:04:41.000Z,0.20
2019-01-03T02:07:41.238Z,0.20
2019-01-03T02:10:40.856Z,0.10
2019-01-03T02:13:41.213Z,0.00
2019-01-03T02:16:40.597Z,0.00
2019-01-03T02:19:40.918Z,-0.10
2019-01-03T02:22:40.407Z,-0.10
2019-01-03T02:25:46.338Z,-0.10
2019-01-03T02:31:32.548Z,0.00
2019-01-03T02:34:32.625Z,0.00
2019-01-03T02:37:33.164Z,-0.10
2019-01-03T02:40:27.965Z,-0.10
2019-01-03T02:43:27.927Z,-0.30
2019-01-03T02:46:27.539Z,-0.40
2019-01-03T02:49:27.704Z,-0.60
2019-01-03T02:52:21.747Z,-0.60
2019-01-03T02:55:21.957Z,-0.70
2019-01-03T02:58:21.477Z,-0.90
2019-01-03T03:01:21.588Z,-1.00
2019-01-03T03:04:21.930Z,-1.10
2019-01-03T03:07:22.234Z,-1.20
2019-01-03T03:10:22.401Z,-1.20
2019-01-03T03:13:22.401Z,-1.30
2019-01-03T03:16:21.851Z,-1.40
2019-01-03T03:19:22.148Z,-1.40
2019-01-03T03:22:21.730Z,-1.50
2019-01-03T03:25:07.536Z,-1.60
2019-01-03T03:28:07.776Z,-1.70
2019-01-03T03:31:13.053Z,-1.80
2019-01-03T03:34:12.935Z,-1.80
2019-01-03T03:37:13.264Z,-1.80
2019-01-03T03:43:27.068Z,-1.80
2019-01-03T03:46:21.031Z,-1.80
2019-01-03T03:49:21.103Z,-1.70
2019-01-03T03:52:20.954Z,-1.80
2019-01-03T03:55:20.589Z,-1.80
2019-01-03T03:58:20.811Z,-1.80
2019-01-03T04:01:24.165Z,-1.90
2019-01-03T04:04:24.864Z,-2.00
2019-01-03T04:07:19.417Z,-2.00
2019-01-03T04:10:19.445Z,-2.10
2019-01-03T04:13:22.369Z,-2.20
2019-01-03T04:16:22.048Z,-2.20
2019-01-03T04:19:25.034Z,-2.30
2019-01-03T04:22:24.471Z,-2.30
2019-01-03T04:25:23.878Z,-2.30
2019-01-03T04:28:24.115Z,-2.20
2019-01-03T04:31:38.419Z,-2.20
2019-01-03T04:37:34.711Z,-2.30
2019-01-03T04:40:35.078Z,-2.30
2019-01-03T04:43:34.666Z,-2.20
2019-01-03T04:49:33.245Z,-2.30
2019-01-03T04:52:33.386Z,-2.30
2019-01-03T04:55:36.186Z,-2.40
2019-01-03T04:58:36.036Z,-2.40
2019-01-03T05:01:35.837Z,-2.40
2019-01-03T05:04:41.310Z,-2.40
2019-01-03T05:07:51.521Z,-2.40
2019-01-03T05:10:29.641Z,-2.50
2019-01-03T05:13:29.706Z,-2.50
2019-01-03T05:16:29.292Z,-2.60
2019-01-03T05:22:27.989Z,-2.60
2019-01-03T05:25:28.062Z,-2.70
2019-01-03T05:28:16.138Z,-2.80
2019-01-03T05:31:23.349Z,-2.90
2019-01-03T05:34:23.024Z,-2.90
2019-01-03T05:37:26.148Z,-2.90
2019-01-03T05:40:26.488Z,-2.90
2019-01-03T05:43:32.318Z,-2.90
2019-01-03T05:46:32.614Z,-2.90
2019-01-03T05:49:37.771Z,-2.90
2019-01-03T05:52:37.175Z,-2.80
2019-01-03T05:55:36.616Z,-2.70
2019-01-03T05:58:39.753Z,-2.70
2019-01-03T06:01:39.957Z,-2.70
2019-01-03T06:04:40.161Z,-2.80
2019-01-03T06:07:39.649Z,-2.90
2019-01-03T06:10:42.765Z,-3.00
2019-01-03T06:13:42.800Z,-2.90
2019-01-03T06:16:42.252Z,-2.90
2019-01-03T06:19:42.541Z,-2.90
2019-01-03T06:22:29.775Z,-2.90
2019-01-03T06:25:26.809Z,-3.00
2019-01-03T06:28:32.763Z,-3.00
2019-01-03T06:31:26.476Z,-3.00
2019-01-03T06:34:25.963Z,-3.00
2019-01-03T06:37:25.464Z,-3.00
2019-01-03T06:40:25.843Z,-3.00
2019-01-03T06:43:25.596Z,-3.00
2019-01-03T06:46:28.136Z,-3.10
2019-01-03T06:49:24.048Z,-3.10
2019-01-03T06:52:23.536Z,-3.30
2019-01-03T06:55:26.109Z,-3.30
2019-01-03T07:01:10.946Z,-3.20
2019-01-03T07:04:10.948Z,-3.20
2019-01-03T07:07:11.213Z,-3.20
2019-01-03T07:10:11.566Z,-3.10
2019-01-03T07:13:10.928Z,-3.10
2019-01-03T07:16:10.387Z,-3.20
2019-01-03T07:19:10.722Z,-3.20
2019-01-03T07:22:10.462Z,-3.20
2019-01-03T07:25:10.657Z,-3.20
2019-01-03T07:28:10.945Z,-3.20
2019-01-03T07:31:11.218Z,-3.20
2019-01-03T07:34:10.645Z,-3.20
2019-01-03T07:37:10.908Z,-3.10
2019-01-03T07:40:10.541Z,-3.00
2019-01-03T07:43:10.009Z,-2.90
2019-01-03T07:46:10.274Z,-2.90
2019-01-03T07:49:10.625Z,-2.90
2019-01-03T07:52:09.913Z,-2.90
2019-01-03T07:55:10.148Z,-2.90
2019-01-03T07:58:08.080Z,-3.00
2019-01-03T08:01:08.292Z,-3.10
2019-01-03T08:04:08.057Z,-3.10
2019-01-03T08:07:07.593Z,-3.10
2019-01-03T08:10:10.390Z,-3.10
2019-01-03T08:13:05.184Z,-3.10
2019-01-03T08:16:10.996Z,-3.20
2019-01-03T08:19:14.100Z,-3.30
2019-01-03T08:22:14.023Z,-3.40
2019-01-03T08:25:13.606Z,-3.50
2019-01-03T08:28:19.336Z,-3.50
2019-01-03T08:31:19.664Z,-3.40
2019-01-03T08:34:19.305Z,-3.40
2019-01-03T08:37:21.487Z,-3.30
2019-01-03T08:40:21.392Z,-3.40
2019-01-03T08:43:27.584Z,-3.40
2019-01-03T08:46:26.652Z,-3.40
2019-01-03T08:49:26.418Z,-3.40
2019-01-03T08:52:26.488Z,-3.40
2019-01-03T08:55:29.553Z,-3.40
2019-01-03T08:58:29.328Z,-3.40
2019-01-03T09:01:31.780Z,-3.40
2019-01-03T09:04:31.579Z,-3.40
2019-01-03T09:07:31.380Z,-3.50
2019-01-03T09:10:30.998Z,-3.50
2019-01-03T09:13:30.566Z,-3.40
2019-01-03T09:16:23.433Z,-3.30
2019-01-03T09:19:22.916Z,-3.20
2019-01-03T09:22:23.150Z,-3.20
2019-01-03T09:25:28.880Z,-3.20
2019-01-03T09:28:22.240Z,-3.10
2019-01-03T09:31:28.396Z,-3.00
2019-01-03T09:37:27.447Z,-2.70
2019-01-03T09:40:29.688Z,-2.60
2019-01-03T09:43:29.637Z,-2.20
2019-01-03T09:46:10.249Z,-2.00
2019-01-03T09:48:51.122Z,-1.80
2019-01-03T09:51:31.632Z,-1.50
2019-01-03T09:54:12.424Z,-1.30
2019-01-03T09:56:53.170Z,-1.10
2019-01-03T09:59:34.172Z,-1.00
2019-01-03T10:02:14.633Z,-0.90
2019-01-03T10:04:55.736Z,-0.70
2019-01-03T10:07:36.461Z,-0.60
2019-01-03T10:10:17.342Z,-0.60
2019-01-03T10:12:58.286Z,-0.60
2019-01-03T10:15:39.056Z,-0.50
2019-01-03T10:18:20.247Z,-0.40
2019-01-03T10:21:01.037Z,-0.30
2019-01-03T10:23:42.036Z,-0.30
2019-01-03T10:26:22.864Z,-0.20
2019-01-03T10:29:03.689Z,-0.10
2019-01-03T10:31:44.488Z,-0.10
2019-01-03T10:34:25.388Z,-0.10
2019-01-03T10:37:06.352Z,-0.10
2019-01-03T10:39:47.279Z,-0.10
2019-01-03T10:42:28.021Z,-0.10
2019-01-03T10:45:08.892Z,-0.20
2019-01-03T10:47:49.928Z,-0.30
2019-01-03T10:50:30.938Z,-0.40
2019-01-03T10:53:11.937Z,-0.40
2019-01-03T10:55:53.129Z,-0.40
2019-01-03T10:58:34.218Z,-0.40
2019-01-03T11:01:14.945Z,-0.40
2019-01-03T11:03:55.729Z,-0.40
2019-01-03T11:06:36.589Z,-0.30
2019-01-03T11:09:17.444Z,-0.30
2019-01-03T11:11:58.139Z,-0.20
2019-01-03T11:14:38.640Z,0.00
2019-01-03T11:17:19.530Z,0.20
2019-01-03T11:19:59.954Z,0.40
2019-01-03T11:22:40.724Z,0.50
2019-01-03T11:25:21.783Z,0.50
2019-01-03T11:28:02.612Z,0.40
2019-01-03T11:30:43.476Z,0.40
2019-01-03T11:33:24.196Z,0.30
2019-01-03T11:36:04.756Z,0.30
2019-01-03T11:38:45.587Z,0.30
2019-01-03T11:41:32.257Z,0.30
2019-01-03T11:44:13.069Z,0.40
2019-01-03T11:46:53.586Z,0.40
2019-01-03T11:49:34.601Z,0.40
2019-01-03T11:52:15.653Z,0.40
2019-01-03T11:54:56.430Z,0.30
2019-01-03T11:57:37.262Z,0.30
2019-01-03T12:00:18.128Z,0.30
2019-01-03T12:02:58.764Z,0.20
2019-01-03T12:05:39.630Z,0.30
2019-01-03T12:08:20.504Z,0.30
2019-01-03T12:11:01.375Z,0.30
2019-01-03T12:13:42.064Z,0.50
2019-01-03T12:16:22.793Z,0.60
2019-01-03T12:19:03.564Z,0.70
2019-01-03T12:21:45.555Z,1.00
2019-01-03T12:24:30.636Z,1.20
2019-01-03T12:27:08.798Z,1.30
2019-01-03T12:29:49.433Z,1.40
2019-01-03T12:32:30.152Z,1.40
2019-01-03T12:35:11.036Z,1.60
2019-01-03T12:37:51.863Z,1.70
2019-01-03T12:40:32.668Z,1.70
2019-01-03T12:43:13.752Z,1.80
2019-01-03T12:45:54.103Z,1.80
2019-01-03T12:48:34.973Z,1.90
2019-01-03T12:51:15.697Z,1.90
2019-01-03T12:53:56.748Z,1.90
2019-01-03T12:56:38.405Z,1.90
2019-01-03T12:59:19.541Z,1.80
2019-01-03T13:02:00.376Z,1.80
2019-01-03T13:04:41.240Z,1.80
2019-01-03T13:07:22.200Z,1.90
2019-01-03T13:10:03.048Z,2.00
2019-01-03T13:12:43.889Z,2.10
2019-01-03T13:15:24.745Z,2.10
2019-01-03T13:18:05.581Z,2.10
2019-01-03T13:20:46.956Z,2.00
2019-01-03T13:23:27.944Z,2.00
2019-01-03T13:26:08.646Z,2.10
2019-01-03T13:28:49.837Z,2.20
2019-01-03T13:31:30.962Z,2.20
2019-01-03T13:34:11.644Z,2.30
2019-01-03T13:36:52.641Z,2.50
2019-01-03T13:39:33.744Z,2.70
2019-01-03T13:42:19.997Z,2.90
2019-01-03T13:45:00.604Z,2.80
2019-01-03T13:47:41.622Z,2.60
2019-01-03T13:50:22.070Z,2.40
2019-01-03T13:53:03.041Z,2.10
2019-01-03T13:55:43.852Z,1.90
2019-01-03T13:58:24.744Z,1.70
2019-01-03T14:01:05.476Z,1.50
2019-01-03T14:03:46.255Z,1.40
2019-01-03T14:06:27.370Z,1.40
2019-01-03T14:09:08.158Z,1.40
2019-01-03T14:11:49.257Z,1.40
2019-01-03T14:14:30.142Z,1.50
2019-01-03T14:17:11.300Z,1.50
2019-01-03T14:19:51.952Z,1.50
2019-01-03T14:22:32.742Z,1.50
2019-01-03T14:25:13.593Z,1.50
2019-01-03T14:27:54.325Z,1.50
2019-01-03T14:30:35.085Z,1.40
2019-01-03T14:33:15.760Z,1.30
2019-01-03T14:35:56.393Z,1.10
2019-01-03T14:38:37.293Z,1.00
2019-01-03T14:41:18.170Z,0.90
2019-01-03T14:43:58.925Z,0.70
2019-01-03T14:46:39.935Z,0.60
2019-01-03T14:49:20.942Z,0.50
2019-01-03T14:52:01.821Z,0.50
2019-01-03T14:54:42.756Z,0.40
2019-01-03T14:57:27.198Z,0.30
2019-01-03T15:00:08.311Z,0.20
2019-01-03T15:02:48.871Z,0.20
2019-01-03T15:05:29.523Z,0.20
2019-01-03T15:08:10.224Z,0.10
2019-01-03T15:10:50.971Z,0.00
2019-01-03T15:13:31.747Z,-0.10
2019-01-03T15:16:12.641Z,-0.10
2019-01-03T15:18:53.512Z,-0.20
2019-01-03T15:21:34.300Z,-0.30
2019-01-03T15:24:14.969Z,-0.30
2019-01-03T15:26:55.437Z,-0.30
2019-01-03T15:29:36.664Z,-0.30
2019-01-03T15:32:17.639Z,-0.40
2019-01-03T15:34:58.664Z,-0.40
2019-01-03T15:37:39.448Z,-0.40
2019-01-03T15:40:20.542Z,-0.50
2019-01-03T15:43:01.856Z,-0.50
2019-01-03T15:45:41.888Z,-0.50
2019-01-03T15:48:22.969Z,-0.60
2019-01-03T15:51:03.657Z,-0.70
2019-01-03T15:53:44.404Z,-0.70
2019-01-03T15:56:25.069Z,-0.80
2019-01-03T15:59:06.078Z,-0.80
2019-01-03T16:01:46.880Z,-0.90
2019-01-03T16:04:27.874Z,-0.90
2019-01-03T16:07:08.820Z,-1.00
2019-01-03T16:09:49.719Z,-1.00
2019-01-03T16:12:30.544Z,-1.00
2019-01-03T16:15:11.693Z,-1.00
2019-01-03T16:17:52.637Z,-1.10
2019-01-03T16:25:51.604Z,-1.20
2019-01-03T16:28:32.449Z,-1.40
2019-01-03T16:31:13.416Z,-1.40
2019-01-03T16:33:54.456Z,-1.40
2019-01-03T16:36:35.349Z,-1.40
2019-01-03T16:39:16.176Z,-1.40
2019-01-03T16:41:57.061Z,-1.40
2019-01-03T16:44:37.856Z,-1.40
2019-01-03T16:47:18.526Z,-1.30
2019-01-03T16:49:59.120Z,-1.30
2019-01-03T16:52:40.474Z,-1.20
2019-01-03T16:55:21.046Z,-1.10
2019-01-03T16:58:01.401Z,-1.10
2019-01-03T17:00:42.165Z,-1.20
2019-01-03T17:03:26.253Z,-1.20
2019-01-03T17:06:07.896Z,-1.10
2019-01-03T17:08:48.621Z,-1.10
2019-01-03T17:11:29.465Z,-1.00
2019-01-03T17:14:10.254Z,-1.00
2019-01-03T17:16:51.153Z,-1.00
2019-01-03T17:19:32.041Z,-1.00
2019-01-03T17:22:12.825Z,-1.00
2019-01-03T17:24:53.804Z,-1.00
2019-01-03T17:27:34.614Z,-1.10
2019-01-03T17:30:15.431Z,-1.10
2019-01-03T17:32:56.228Z,-1.10
2019-01-03T17:35:37.064Z,-1.10
2019-01-03T17:38:17.397Z,-1.10
2019-01-03T17:40:58.634Z,-1.00
2019-01-03T17:43:39.356Z,-1.00
2019-01-03T17:46:20.516Z,-1.00
2019-01-03T17:49:01.244Z,-1.00
2019-01-03T17:51:42.170Z,-1.00
2019-01-03T17:54:23.354Z,-1.00
2019-01-03T17:57:03.876Z,-1.00
2019-01-03T17:59:44.832Z,-1.00
2019-01-03T18:02:25.356Z,-1.10
2019-01-03T18:05:06.329Z,-1.10
2019-01-03T18:07:47.020Z,-1.10
2019-01-03T18:10:27.860Z,-1.00
2019-01-03T18:13:08.546Z,-1.10
2019-01-03T18:15:49.355Z,-1.10
2019-01-03T18:18:30.514Z,-1.10
2019-01-03T18:23:58.567Z,-1.20
2019-01-03T18:26:40.022Z,-1.20
2019-01-03T18:29:20.469Z,-1.20
2019-01-03T18:32:01.636Z,-1.20
2019-01-03T18:34:42.460Z,-1.10
2019-01-03T18:37:22.882Z,-1.10
2019-01-03T18:40:03.639Z,-1.00
2019-01-03T18:42:44.264Z,-1.00
2019-01-03T18:45:25.068Z,-1.00
2019-01-03T18:48:06.074Z,-1.00
2019-01-03T18:50:46.936Z,-0.90
2019-01-03T18:53:28.097Z,-1.00
2019-01-03T18:56:09.019Z,-1.00
2019-01-03T18:58:49.704Z,-1.10
2019-01-03T19:01:30.528Z,-1.10
2019-01-03T19:04:11.709Z,-1.10
2019-01-03T19:06:52.264Z,-1.10
2019-01-03T19:09:33.205Z,-1.20
2019-01-03T19:12:14.002Z,-1.20
2019-01-03T19:14:54.816Z,-1.20
2019-01-03T19:17:23.868Z,-1.20
2019-01-03T19:20:12.014Z,-1.20
2019-01-03T19:23:00.097Z,-1.20
2019-01-03T19:25:40.869Z,-1.20
2019-01-03T19:28:21.221Z,-1.20
2019-01-03T19:31:02.137Z,-1.20
2019-01-03T19:33:42.787Z,-1.20
2019-01-03T19:36:23.624Z,-1.20
2019-01-03T19:38:52.603Z,-1.10
2019-01-03T19:41:40.763Z,-1.10
2019-01-03T19:44:21.197Z,-1.00
2019-01-03T19:47:01.704Z,-1.00
2019-01-03T19:49:42.829Z,-0.90
2019-01-03T19:52:23.935Z,-0.90
2019-01-03T19:55:04.654Z,-0.90
2019-01-03T19:57:45.836Z,-0.90
2019-01-03T20:00:26.824Z,-1.00
2019-01-03T20:03:07.617Z,-1.00
2019-01-03T20:05:48.438Z,-1.10
2019-01-03T20:08:29.110Z,-1.10
2019-01-03T20:11:09.497Z,-1.20
2019-01-03T20:13:49.981Z,-1.10
2019-01-03T20:16:31.286Z,-1.10
2019-01-03T20:19:12.094Z,-1.10
2019-01-03T20:21:52.560Z,-1.10
2019-01-03T20:24:33.320Z,-1.10
2019-01-03T20:27:14.513Z,-1.10
2019-01-03T20:29:55.508Z,-1.10
2019-01-03T20:32:36.660Z,-1.10
2019-01-03T20:35:17.649Z,-1.20
2019-01-03T20:37:58.317Z,-1.20
2019-01-03T20:40:38.716Z,-1.10
2019-01-03T20:43:19.347Z,-1.00
2019-01-03T20:46:00.196Z,-1.10
2019-01-03T20:48:40.805Z,-1.10
2019-01-03T20:51:21.680Z,-1.10
2019-01-03T20:54:02.562Z,-1.10
2019-01-03T20:56:43.509Z,-1.10
2019-01-03T20:59:24.264Z,-1.20
2019-01-03T21:02:05.360Z,-1.20
2019-01-03T21:04:46.165Z,-1.20
2019-01-03T21:07:26.861Z,-1.20
2019-01-03T21:10:07.968Z,-1.30
2019-01-03T21:12:49.128Z,-1.30
2019-01-03T21:15:29.848Z,-1.20
2019-01-03T21:18:10.456Z,-1.30
2019-01-03T21:20:51.352Z,-1.20
2019-01-03T21:23:31.936Z,-1.20
2019-01-03T21:26:12.784Z,-1.20
2019-01-03T21:28:53.688Z,-1.10
2019-01-03T21:31:34.245Z,-1.10
2019-01-03T21:34:14.969Z,-1.10
2019-01-03T21:36:55.741Z,-1.10
2019-01-03T21:39:36.493Z,-1.10
2019-01-03T21:42:17.226Z,-1.00
2019-01-03T21:44:58.633Z,-1.00
2019-01-03T21:47:39.862Z,-1.00
2019-01-03T21:50:20.693Z,-1.00
2019-01-03T21:53:01.343Z,-0.90
2019-01-03T21:55:42.071Z,-0.90
2019-01-03T21:58:23.010Z,-0.90
2019-01-03T22:01:03.734Z,-0.90
2019-01-03T22:03:44.489Z,-0.90
2019-01-03T22:06:25.656Z,-0.90
2019-01-03T22:09:06.449Z,-0.90
2019-01-03T22:11:47.196Z,-0.90
2019-01-03T22:14:28.071Z,-0.80
2019-01-03T22:17:08.837Z,-0.70
2019-01-03T22:19:49.673Z,-0.70
2019-01-03T22:22:30.551Z,-0.70
2019-01-03T22:25:11.803Z,-0.70
2019-01-03T22:27:57.972Z,-0.60
2019-01-03T22:30:40.028Z,-0.60
2019-01-03T22:33:21.178Z,-0.50
2019-01-03T22:36:02.049Z,-0.50
2019-01-03T22:38:42.873Z,-0.50
2019-01-03T22:41:23.813Z,-0.50
2019-01-03T22:44:04.612Z,-0.40
2019-01-03T22:46:45.544Z,-0.40
2019-01-03T22:49:26.331Z,-0.40
2019-01-03T22:52:07.306Z,-0.50
2019-01-03T22:54:47.992Z,-0.50
2019-01-03T22:57:29.048Z,-0.50
2019-01-03T23:00:09.734Z,-0.50
2019-01-03T23:02:50.556Z,-0.50
2019-01-03T23:05:31.375Z,-0.50
2019-01-03T23:08:12.397Z,-0.50
2019-01-03T23:10:53.238Z,-0.50
2019-01-03T23:13:33.876Z,-0.50
2019-01-03T23:16:15.184Z,-0.40
2019-01-03T23:18:56.150Z,-0.40
2019-01-03T23:21:37.602Z,-0.40
2019-01-03T23:24:18.410Z,-0.40
2019-01-03T23:26:58.863Z,-0.40
2019-01-03T23:29:39.445Z,-0.50
2019-01-03T23:32:20.516Z,-0.50
2019-01-03T23:35:01.294Z,-0.60
2019-01-03T23:37:42.090Z,-0.70
2019-01-03T23:40:23.009Z,-0.80
2019-01-03T23:43:03.412Z,-0.90
2019-01-03T23:45:44.270Z,-1.00
2019-01-03T23:48:25.151Z,-1.00
2019-01-03T23:51:05.883Z,-1.10
2019-01-03T23:53:46.507Z,-1.20
2019-01-03T23:56:27.432Z,-1.30
2019-01-03T23:59:08.228Z,-1.40
